sensor_id;sensor_type;location;lat;lon;timestamp;temperature;humidity
18658;DHT22;9458;50.942;5.074;2022-09-03T00:01:36;20.30;86.70
18658;DHT22;9458;50.942;5.074;2022-09-03T00:04:16;20.30;87.90
18658;DHT22;9458;50.942;5.074;2022-09-03T00:06:51;20.20;88.30
18658;DHT22;9458;50.942;5.074;2022-09-03T00:09:24;20.20;88.40
18658;DHT22;9458;50.942;5.074;2022-09-03T00:12:01;20.10;88.40
18658;DHT22;9458;50.942;5.074;2022-09-03T00:14:34;20.10;88.80
18658;DHT22;9458;50.942;5.074;2022-09-03T00:17:09;20.00;89.50
18658;DHT22;9458;50.942;5.074;2022-09-03T00:19:42;19.90;89.30
18658;DHT22;9458;50.942;5.074;2022-09-03T00:22:26;19.90;90.00
18658;DHT22;9458;50.942;5.074;2022-09-03T00:25:02;19.80;90.10
18658;DHT22;9458;50.942;5.074;2022-09-03T00:27:43;19.80;90.20
18658;DHT22;9458;50.942;5.074;2022-09-03T00:30:15;19.70;90.10
18658;DHT22;9458;50.942;5.074;2022-09-03T00:32:47;19.70;90.20
18658;DHT22;9458;50.942;5.074;2022-09-03T00:35:21;19.70;90.30
18658;DHT22;9458;50.942;5.074;2022-09-03T00:37:53;19.70;90.20
18658;DHT22;9458;50.942;5.074;2022-09-03T00:40:35;19.60;90.20
18658;DHT22;9458;50.942;5.074;2022-09-03T00:43:14;19.60;90.40
18658;DHT22;9458;50.942;5.074;2022-09-03T00:45:49;19.60;90.60
18658;DHT22;9458;50.942;5.074;2022-09-03T00:48:22;19.60;91.00
18658;DHT22;9458;50.942;5.074;2022-09-03T00:51:06;19.50;91.00
18658;DHT22;9458;50.942;5.074;2022-09-03T00:53:43;19.50;90.90
18658;DHT22;9458;50.942;5.074;2022-09-03T00:56:24;19.50;90.80
18658;DHT22;9458;50.942;5.074;2022-09-03T00:59:05;19.50;91.10
18658;DHT22;9458;50.942;5.074;2022-09-03T01:01:39;19.50;90.80
18658;DHT22;9458;50.942;5.074;2022-09-03T01:04:26;19.50;90.90
18658;DHT22;9458;50.942;5.074;2022-09-03T01:06:59;19.50;90.70
18658;DHT22;9458;50.942;5.074;2022-09-03T01:09:40;19.60;90.50
18658;DHT22;9458;50.942;5.074;2022-09-03T01:12:19;19.60;90.60
18658;DHT22;9458;50.942;5.074;2022-09-03T01:15:00;19.70;90.90
18658;DHT22;9458;50.942;5.074;2022-09-03T01:17:39;19.70;90.90
18658;DHT22;9458;50.942;5.074;2022-09-03T01:20:25;19.70;90.90
18658;DHT22;9458;50.942;5.074;2022-09-03T01:29:13;19.70;88.90
18658;DHT22;9458;50.942;5.074;2022-09-03T01:31:52;19.70;88.60
18658;DHT22;9458;50.942;5.074;2022-09-03T01:34:30;19.70;88.50
18658;DHT22;9458;50.942;5.074;2022-09-03T01:37:07;19.80;88.40
18658;DHT22;9458;50.942;5.074;2022-09-03T01:39:48;19.80;88.40
18658;DHT22;9458;50.942;5.074;2022-09-03T01:42:26;19.80;88.30
18658;DHT22;9458;50.942;5.074;2022-09-03T01:45:10;19.80;88.40
18658;DHT22;9458;50.942;5.074;2022-09-03T01:47:50;19.80;88.60
18658;DHT22;9458;50.942;5.074;2022-09-03T01:50:29;19.80;89.00
18658;DHT22;9458;50.942;5.074;2022-09-03T01:53:06;19.80;90.10
18658;DHT22;9458;50.942;5.074;2022-09-03T01:55:43;19.80;89.10
18658;DHT22;9458;50.942;5.074;2022-09-03T01:58:16;19.80;88.60
18658;DHT22;9458;50.942;5.074;2022-09-03T02:00:53;19.80;88.60
18658;DHT22;9458;50.942;5.074;2022-09-03T02:03:24;19.80;90.10
18658;DHT22;9458;50.942;5.074;2022-09-03T02:05:59;19.80;90.60
18658;DHT22;9458;50.942;5.074;2022-09-03T02:08:31;19.70;89.40
18658;DHT22;9458;50.942;5.074;2022-09-03T02:10:59;19.70;88.90
18658;DHT22;9458;50.942;5.074;2022-09-03T02:13:30;19.80;90.50
18658;DHT22;9458;50.942;5.074;2022-09-03T02:16:04;19.70;90.60
18658;DHT22;9458;50.942;5.074;2022-09-03T02:18:37;19.70;89.00
18658;DHT22;9458;50.942;5.074;2022-09-03T02:21:07;19.60;88.80
18658;DHT22;9458;50.942;5.074;2022-09-03T02:23:38;19.60;89.20
18658;DHT22;9458;50.942;5.074;2022-09-03T02:26:07;19.70;90.50
18658;DHT22;9458;50.942;5.074;2022-09-03T02:28:36;19.70;90.70
18658;DHT22;9458;50.942;5.074;2022-09-03T02:31:07;19.60;89.80
18658;DHT22;9458;50.942;5.074;2022-09-03T02:33:36;19.60;89.10
18658;DHT22;9458;50.942;5.074;2022-09-03T02:36:06;19.60;89.30
18658;DHT22;9458;50.942;5.074;2022-09-03T02:38:36;19.60;89.30
18658;DHT22;9458;50.942;5.074;2022-09-03T02:41:04;19.60;89.50
18658;DHT22;9458;50.942;5.074;2022-09-03T02:43:38;19.70;89.50
18658;DHT22;9458;50.942;5.074;2022-09-03T02:46:15;19.60;88.90
18658;DHT22;9458;50.942;5.074;2022-09-03T02:48:43;19.60;88.90
18658;DHT22;9458;50.942;5.074;2022-09-03T02:51:11;19.60;90.50
18658;DHT22;9458;50.942;5.074;2022-09-03T02:53:38;19.60;90.50
18658;DHT22;9458;50.942;5.074;2022-09-03T02:56:06;19.60;90.40
18658;DHT22;9458;50.942;5.074;2022-09-03T02:58:34;19.60;90.30
18658;DHT22;9458;50.942;5.074;2022-09-03T03:01:01;19.60;90.50
18658;DHT22;9458;50.942;5.074;2022-09-03T03:03:32;19.60;90.70
18658;DHT22;9458;50.942;5.074;2022-09-03T03:06:01;19.60;91.40
18658;DHT22;9458;50.942;5.074;2022-09-03T03:08:29;19.60;91.50
18658;DHT22;9458;50.942;5.074;2022-09-03T03:10:58;19.50;91.70
18658;DHT22;9458;50.942;5.074;2022-09-03T03:13:27;19.50;91.70
18658;DHT22;9458;50.942;5.074;2022-09-03T03:15:56;19.40;91.50
18658;DHT22;9458;50.942;5.074;2022-09-03T03:18:24;19.40;91.60
18658;DHT22;9458;50.942;5.074;2022-09-03T03:20:53;19.40;91.50
18658;DHT22;9458;50.942;5.074;2022-09-03T03:23:20;19.40;91.20
18658;DHT22;9458;50.942;5.074;2022-09-03T03:25:48;19.40;91.30
18658;DHT22;9458;50.942;5.074;2022-09-03T03:28:16;19.50;91.80
18658;DHT22;9458;50.942;5.074;2022-09-03T03:30:44;19.40;91.40
18658;DHT22;9458;50.942;5.074;2022-09-03T03:33:13;19.40;91.30
18658;DHT22;9458;50.942;5.074;2022-09-03T03:35:41;19.40;91.30
18658;DHT22;9458;50.942;5.074;2022-09-03T03:38:11;19.40;90.60
18658;DHT22;9458;50.942;5.074;2022-09-03T03:40:38;19.50;90.80
18658;DHT22;9458;50.942;5.074;2022-09-03T03:43:06;19.50;91.40
18658;DHT22;9458;50.942;5.074;2022-09-03T03:45:33;19.50;91.40
18658;DHT22;9458;50.942;5.074;2022-09-03T03:48:01;19.40;91.20
18658;DHT22;9458;50.942;5.074;2022-09-03T03:50:28;19.50;91.10
18658;DHT22;9458;50.942;5.074;2022-09-03T03:52:58;19.40;91.30
18658;DHT22;9458;50.942;5.074;2022-09-03T03:55:28;19.40;91.50
18658;DHT22;9458;50.942;5.074;2022-09-03T03:57:57;19.40;91.80
18658;DHT22;9458;50.942;5.074;2022-09-03T04:00:25;19.40;91.90
18658;DHT22;9458;50.942;5.074;2022-09-03T04:02:52;19.40;91.80
18658;DHT22;9458;50.942;5.074;2022-09-03T04:05:20;19.40;92.00
18658;DHT22;9458;50.942;5.074;2022-09-03T04:07:48;19.40;91.70
18658;DHT22;9458;50.942;5.074;2022-09-03T04:10:15;19.40;91.60
18658;DHT22;9458;50.942;5.074;2022-09-03T04:12:45;19.40;91.70
18658;DHT22;9458;50.942;5.074;2022-09-03T04:15:12;19.40;91.90
18658;DHT22;9458;50.942;5.074;2022-09-03T04:17:40;19.40;92.20
18658;DHT22;9458;50.942;5.074;2022-09-03T04:20:09;19.40;92.40
18658;DHT22;9458;50.942;5.074;2022-09-03T04:22:36;19.40;92.50
18658;DHT22;9458;50.942;5.074;2022-09-03T04:25:04;19.40;92.70
18658;DHT22;9458;50.942;5.074;2022-09-03T04:27:32;19.40;92.70
18658;DHT22;9458;50.942;5.074;2022-09-03T04:30:01;19.40;93.20
18658;DHT22;9458;50.942;5.074;2022-09-03T04:32:28;19.40;93.20
18658;DHT22;9458;50.942;5.074;2022-09-03T04:35:13;19.40;92.00
18658;DHT22;9458;50.942;5.074;2022-09-03T04:37:41;19.40;91.20
18658;DHT22;9458;50.942;5.074;2022-09-03T04:40:09;19.40;91.30
18658;DHT22;9458;50.942;5.074;2022-09-03T04:42:37;19.40;91.50
18658;DHT22;9458;50.942;5.074;2022-09-03T04:45:07;19.40;91.10
18658;DHT22;9458;50.942;5.074;2022-09-03T04:47:34;19.40;91.50
18658;DHT22;9458;50.942;5.074;2022-09-03T04:50:03;19.40;91.40
18658;DHT22;9458;50.942;5.074;2022-09-03T04:52:31;19.40;91.70
18658;DHT22;9458;50.942;5.074;2022-09-03T04:54:58;19.40;92.40
18658;DHT22;9458;50.942;5.074;2022-09-03T04:57:27;19.30;91.80
18658;DHT22;9458;50.942;5.074;2022-09-03T05:00:11;19.30;91.40
18658;DHT22;9458;50.942;5.074;2022-09-03T05:02:38;19.30;91.40
18658;DHT22;9458;50.942;5.074;2022-09-03T05:05:08;19.30;91.10
18658;DHT22;9458;50.942;5.074;2022-09-03T05:07:36;19.40;91.40
18658;DHT22;9458;50.942;5.074;2022-09-03T05:10:18;19.40;91.50
18658;DHT22;9458;50.942;5.074;2022-09-03T05:12:56;19.40;91.30
18658;DHT22;9458;50.942;5.074;2022-09-03T05:15:25;19.30;91.30
18658;DHT22;9458;50.942;5.074;2022-09-03T05:17:56;19.30;91.30
18658;DHT22;9458;50.942;5.074;2022-09-03T05:20:24;19.40;91.40
18658;DHT22;9458;50.942;5.074;2022-09-03T05:22:53;19.30;91.40
18658;DHT22;9458;50.942;5.074;2022-09-03T05:25:20;19.30;91.40
18658;DHT22;9458;50.942;5.074;2022-09-03T05:27:48;19.30;91.40
18658;DHT22;9458;50.942;5.074;2022-09-03T05:30:16;19.30;91.10
18658;DHT22;9458;50.942;5.074;2022-09-03T05:32:45;19.30;91.20
18658;DHT22;9458;50.942;5.074;2022-09-03T05:35:14;19.30;91.50
18658;DHT22;9458;50.942;5.074;2022-09-03T05:37:42;19.30;91.40
18658;DHT22;9458;50.942;5.074;2022-09-03T05:40:20;19.30;91.30
18658;DHT22;9458;50.942;5.074;2022-09-03T05:42:54;19.30;91.40
18658;DHT22;9458;50.942;5.074;2022-09-03T05:45:30;19.30;91.20
18658;DHT22;9458;50.942;5.074;2022-09-03T05:48:03;19.30;91.50
18658;DHT22;9458;50.942;5.074;2022-09-03T05:50:30;19.40;91.40
18658;DHT22;9458;50.942;5.074;2022-09-03T05:52:58;19.40;91.30
18658;DHT22;9458;50.942;5.074;2022-09-03T05:55:39;19.40;91.20
18658;DHT22;9458;50.942;5.074;2022-09-03T05:58:10;19.40;91.40
18658;DHT22;9458;50.942;5.074;2022-09-03T06:00:38;19.40;91.10
18658;DHT22;9458;50.942;5.074;2022-09-03T06:03:09;19.40;91.20
18658;DHT22;9458;50.942;5.074;2022-09-03T06:05:39;19.40;91.40
18658;DHT22;9458;50.942;5.074;2022-09-03T06:08:18;19.50;91.70
18658;DHT22;9458;50.942;5.074;2022-09-03T06:10:47;19.50;92.10
18658;DHT22;9458;50.942;5.074;2022-09-03T06:13:16;19.50;91.80
18658;DHT22;9458;50.942;5.074;2022-09-03T06:15:44;19.50;91.50
18658;DHT22;9458;50.942;5.074;2022-09-03T06:18:13;19.60;91.80
18658;DHT22;9458;50.942;5.074;2022-09-03T06:20:41;19.60;91.70
18658;DHT22;9458;50.942;5.074;2022-09-03T06:23:09;19.70;91.50
18658;DHT22;9458;50.942;5.074;2022-09-03T06:25:37;19.80;91.50
18658;DHT22;9458;50.942;5.074;2022-09-03T06:28:06;19.90;91.60
18658;DHT22;9458;50.942;5.074;2022-09-03T06:30:43;20.00;91.60
18658;DHT22;9458;50.942;5.074;2022-09-03T06:33:30;20.10;91.30
18658;DHT22;9458;50.942;5.074;2022-09-03T06:36:16;20.40;91.50
18658;DHT22;9458;50.942;5.074;2022-09-03T06:38:55;20.90;91.50
18658;DHT22;9458;50.942;5.074;2022-09-03T06:41:38;21.80;91.10
18658;DHT22;9458;50.942;5.074;2022-09-03T06:44:20;22.90;88.60
18658;DHT22;9458;50.942;5.074;2022-09-03T06:46:48;23.80;86.80
18658;DHT22;9458;50.942;5.074;2022-09-03T06:49:27;24.60;85.10
18658;DHT22;9458;50.942;5.074;2022-09-03T06:52:07;25.30;83.40
18658;DHT22;9458;50.942;5.074;2022-09-03T06:54:48;26.00;83.50
18658;DHT22;9458;50.942;5.074;2022-09-03T06:57:19;26.50;80.30
18658;DHT22;9458;50.942;5.074;2022-09-03T07:00:00;26.70;78.80
18658;DHT22;9458;50.942;5.074;2022-09-03T07:02:41;26.30;79.00
18658;DHT22;9458;50.942;5.074;2022-09-03T07:05:13;25.70;80.90
18658;DHT22;9458;50.942;5.074;2022-09-03T07:07:41;25.00;81.60
18658;DHT22;9458;50.942;5.074;2022-09-03T07:10:09;24.50;82.60
18658;DHT22;9458;50.942;5.074;2022-09-03T07:12:43;24.00;83.20
18658;DHT22;9458;50.942;5.074;2022-09-03T07:15:13;23.70;84.00
18658;DHT22;9458;50.942;5.074;2022-09-03T07:17:41;23.40;84.90
18658;DHT22;9458;50.942;5.074;2022-09-03T07:20:11;23.20;85.50
18658;DHT22;9458;50.942;5.074;2022-09-03T07:22:44;23.20;85.70
18658;DHT22;9458;50.942;5.074;2022-09-03T07:25:17;23.20;86.30
18658;DHT22;9458;50.942;5.074;2022-09-03T07:27:47;23.40;86.70
18658;DHT22;9458;50.942;5.074;2022-09-03T07:30:16;23.60;86.30
18658;DHT22;9458;50.942;5.074;2022-09-03T07:32:45;23.80;85.80
18658;DHT22;9458;50.942;5.074;2022-09-03T07:35:17;23.80;85.50
18658;DHT22;9458;50.942;5.074;2022-09-03T07:37:50;23.70;85.20
18658;DHT22;9458;50.942;5.074;2022-09-03T07:40:19;23.50;85.70
18658;DHT22;9458;50.942;5.074;2022-09-03T07:43:01;23.40;86.80
18658;DHT22;9458;50.942;5.074;2022-09-03T07:45:29;23.30;86.90
18658;DHT22;9458;50.942;5.074;2022-09-03T07:48:02;23.30;86.80
18658;DHT22;9458;50.942;5.074;2022-09-03T07:50:34;23.20;87.30
18658;DHT22;9458;50.942;5.074;2022-09-03T07:53:04;23.20;87.50
18658;DHT22;9458;50.942;5.074;2022-09-03T07:55:35;23.20;87.80
18658;DHT22;9458;50.942;5.074;2022-09-03T07:58:06;23.10;87.90
18658;DHT22;9458;50.942;5.074;2022-09-03T08:00:47;23.10;88.60
18658;DHT22;9458;50.942;5.074;2022-09-03T08:03:29;23.10;88.70
18658;DHT22;9458;50.942;5.074;2022-09-03T08:06:03;23.00;89.10
18658;DHT22;9458;50.942;5.074;2022-09-03T08:08:33;23.00;89.30
18658;DHT22;9458;50.942;5.074;2022-09-03T08:11:07;23.00;89.10
18658;DHT22;9458;50.942;5.074;2022-09-03T08:13:39;23.00;89.40
18658;DHT22;9458;50.942;5.074;2022-09-03T08:16:10;23.00;89.80
18658;DHT22;9458;50.942;5.074;2022-09-03T08:18:38;23.00;90.00
18658;DHT22;9458;50.942;5.074;2022-09-03T08:21:09;23.00;90.20
18658;DHT22;9458;50.942;5.074;2022-09-03T08:23:39;23.00;90.20
18658;DHT22;9458;50.942;5.074;2022-09-03T08:26:08;23.00;90.20
18658;DHT22;9458;50.942;5.074;2022-09-03T08:28:35;23.10;90.20
18658;DHT22;9458;50.942;5.074;2022-09-03T08:31:10;23.10;90.30
18658;DHT22;9458;50.942;5.074;2022-09-03T08:33:39;23.20;90.40
18658;DHT22;9458;50.942;5.074;2022-09-03T08:36:11;23.30;90.30
18658;DHT22;9458;50.942;5.074;2022-09-03T08:38:40;23.40;90.40
18658;DHT22;9458;50.942;5.074;2022-09-03T08:41:12;23.50;90.40
18658;DHT22;9458;50.942;5.074;2022-09-03T08:44:07;23.60;90.60
18658;DHT22;9458;50.942;5.074;2022-09-03T08:46:45;23.80;90.50
18658;DHT22;9458;50.942;5.074;2022-09-03T08:49:33;23.90;90.50
18658;DHT22;9458;50.942;5.074;2022-09-03T08:52:07;24.00;90.60
18658;DHT22;9458;50.942;5.074;2022-09-03T08:54:40;24.10;91.00
18658;DHT22;9458;50.942;5.074;2022-09-03T08:57:13;24.20;91.00
18658;DHT22;9458;50.942;5.074;2022-09-03T08:59:43;24.30;91.20
18658;DHT22;9458;50.942;5.074;2022-09-03T09:02:30;24.30;91.70
18658;DHT22;9458;50.942;5.074;2022-09-03T09:05:11;24.30;91.70
18658;DHT22;9458;50.942;5.074;2022-09-03T09:07:50;24.40;91.80
18658;DHT22;9458;50.942;5.074;2022-09-03T09:10:27;24.50;92.10
18658;DHT22;9458;50.942;5.074;2022-09-03T09:13:07;24.60;92.10
18658;DHT22;9458;50.942;5.074;2022-09-03T09:15:56;24.70;92.70
18658;DHT22;9458;50.942;5.074;2022-09-03T09:18:55;24.90;92.80
18658;DHT22;9458;50.942;5.074;2022-09-03T09:21:28;25.00;92.70
18658;DHT22;9458;50.942;5.074;2022-09-03T09:24:01;25.20;93.00
18658;DHT22;9458;50.942;5.074;2022-09-03T09:26:32;25.30;92.90
18658;DHT22;9458;50.942;5.074;2022-09-03T09:29:04;25.30;92.80
18658;DHT22;9458;50.942;5.074;2022-09-03T09:31:32;25.40;92.90
18658;DHT22;9458;50.942;5.074;2022-09-03T09:34:03;25.50;93.00
18658;DHT22;9458;50.942;5.074;2022-09-03T09:36:40;25.50;93.00
18658;DHT22;9458;50.942;5.074;2022-09-03T09:39:11;25.60;93.00
18658;DHT22;9458;50.942;5.074;2022-09-03T09:41:41;25.70;93.10
18658;DHT22;9458;50.942;5.074;2022-09-03T09:44:18;25.80;93.00
18658;DHT22;9458;50.942;5.074;2022-09-03T09:46:46;25.90;93.10
18658;DHT22;9458;50.942;5.074;2022-09-03T09:49:28;26.00;93.00
18658;DHT22;9458;50.942;5.074;2022-09-03T09:52:06;26.10;92.80
18658;DHT22;9458;50.942;5.074;2022-09-03T09:54:39;26.30;92.90
18658;DHT22;9458;50.942;5.074;2022-09-03T09:57:14;26.30;92.70
18658;DHT22;9458;50.942;5.074;2022-09-03T09:59:44;26.40;92.40
18658;DHT22;9458;50.942;5.074;2022-09-03T10:02:14;26.50;92.30
18658;DHT22;9458;50.942;5.074;2022-09-03T10:04:45;26.70;92.50
18658;DHT22;9458;50.942;5.074;2022-09-03T10:07:25;26.70;92.40
18658;DHT22;9458;50.942;5.074;2022-09-03T10:10:16;26.90;92.70
18658;DHT22;9458;50.942;5.074;2022-09-03T10:12:47;27.00;92.50
18658;DHT22;9458;50.942;5.074;2022-09-03T10:15:23;27.10;92.40
18658;DHT22;9458;50.942;5.074;2022-09-03T10:17:56;27.10;92.40
18658;DHT22;9458;50.942;5.074;2022-09-03T10:20:33;27.00;92.00
18658;DHT22;9458;50.942;5.074;2022-09-03T10:23:09;26.90;92.60
18658;DHT22;9458;50.942;5.074;2022-09-03T10:25:55;26.70;92.90
18658;DHT22;9458;50.942;5.074;2022-09-03T10:28:29;26.70;93.10
18658;DHT22;9458;50.942;5.074;2022-09-03T10:31:32;26.60;93.10
18658;DHT22;9458;50.942;5.074;2022-09-03T10:34:08;26.50;93.20
18658;DHT22;9458;50.942;5.074;2022-09-03T10:36:41;26.30;93.10
18658;DHT22;9458;50.942;5.074;2022-09-03T10:39:17;26.30;92.90
18658;DHT22;9458;50.942;5.074;2022-09-03T10:42:00;26.20;93.40
18658;DHT22;9458;50.942;5.074;2022-09-03T10:44:54;26.00;93.40
18658;DHT22;9458;50.942;5.074;2022-09-03T10:47:38;26.00;93.60
18658;DHT22;9458;50.942;5.074;2022-09-03T10:50:13;25.90;93.70
18658;DHT22;9458;50.942;5.074;2022-09-03T10:52:58;25.90;94.00
18658;DHT22;9458;50.942;5.074;2022-09-03T10:55:39;25.80;93.90
18658;DHT22;9458;50.942;5.074;2022-09-03T10:58:23;25.80;93.90
18658;DHT22;9458;50.942;5.074;2022-09-03T11:00:57;25.90;93.80
18658;DHT22;9458;50.942;5.074;2022-09-03T11:03:52;25.80;93.90
18658;DHT22;9458;50.942;5.074;2022-09-03T11:06:28;25.80;93.90
18658;DHT22;9458;50.942;5.074;2022-09-03T11:09:00;25.80;93.90
18658;DHT22;9458;50.942;5.074;2022-09-03T11:11:41;25.80;94.00
18658;DHT22;9458;50.942;5.074;2022-09-03T11:17:20;25.80;93.80
18658;DHT22;9458;50.942;5.074;2022-09-03T11:19:53;25.80;93.60
18658;DHT22;9458;50.942;5.074;2022-09-03T11:22:39;25.90;94.00
18658;DHT22;9458;50.942;5.074;2022-09-03T11:25:12;26.00;93.90
18658;DHT22;9458;50.942;5.074;2022-09-03T11:27:53;26.00;93.80
18658;DHT22;9458;50.942;5.074;2022-09-03T11:30:34;26.00;93.90
18658;DHT22;9458;50.942;5.074;2022-09-03T11:33:43;26.00;94.00
18658;DHT22;9458;50.942;5.074;2022-09-03T11:36:25;25.90;93.90
18658;DHT22;9458;50.942;5.074;2022-09-03T11:39:04;25.80;93.80
18658;DHT22;9458;50.942;5.074;2022-09-03T11:41:57;25.90;93.80
18658;DHT22;9458;50.942;5.074;2022-09-03T11:44:43;25.80;94.00
18658;DHT22;9458;50.942;5.074;2022-09-03T11:47:36;25.80;94.00
18658;DHT22;9458;50.942;5.074;2022-09-03T11:50:19;25.80;93.60
18658;DHT22;9458;50.942;5.074;2022-09-03T11:52:49;25.80;93.90
18658;DHT22;9458;50.942;5.074;2022-09-03T11:55:29;25.80;93.90
18658;DHT22;9458;50.942;5.074;2022-09-03T11:58:23;25.80;93.60
18658;DHT22;9458;50.942;5.074;2022-09-03T12:01:02;25.90;93.50
18658;DHT22;9458;50.942;5.074;2022-09-03T12:03:56;25.90;93.00
18658;DHT22;9458;50.942;5.074;2022-09-03T12:07:13;26.00;93.10
18658;DHT22;9458;50.942;5.074;2022-09-03T12:10:12;26.00;93.20
18658;DHT22;9458;50.942;5.074;2022-09-03T12:12:58;26.10;93.10
18658;DHT22;9458;50.942;5.074;2022-09-03T12:15:45;26.20;92.60
18658;DHT22;9458;50.942;5.074;2022-09-03T12:18:29;26.20;92.90
18658;DHT22;9458;50.942;5.074;2022-09-03T12:21:19;26.30;92.70
18658;DHT22;9458;50.942;5.074;2022-09-03T12:23:52;26.30;93.50
18658;DHT22;9458;50.942;5.074;2022-09-03T12:26:23;26.30;93.20
18658;DHT22;9458;50.942;5.074;2022-09-03T12:28:55;26.40;93.20
18658;DHT22;9458;50.942;5.074;2022-09-03T12:31:25;26.40;93.00
18658;DHT22;9458;50.942;5.074;2022-09-03T12:33:57;26.50;93.00
18658;DHT22;9458;50.942;5.074;2022-09-03T12:36:36;26.50;92.40
18658;DHT22;9458;50.942;5.074;2022-09-03T12:39:19;26.40;92.50
18658;DHT22;9458;50.942;5.074;2022-09-03T12:42:02;26.40;93.20
18658;DHT22;9458;50.942;5.074;2022-09-03T12:44:39;26.30;92.70
18658;DHT22;9458;50.942;5.074;2022-09-03T12:47:10;26.40;92.90
18658;DHT22;9458;50.942;5.074;2022-09-03T12:49:39;26.40;92.30
18658;DHT22;9458;50.942;5.074;2022-09-03T12:52:14;26.30;92.50
18658;DHT22;9458;50.942;5.074;2022-09-03T12:54:50;26.30;92.60
18658;DHT22;9458;50.942;5.074;2022-09-03T12:57:21;26.20;92.90
18658;DHT22;9458;50.942;5.074;2022-09-03T12:59:52;26.10;92.60
18658;DHT22;9458;50.942;5.074;2022-09-03T13:02:24;26.00;92.70
18658;DHT22;9458;50.942;5.074;2022-09-03T13:04:54;26.00;92.90
18658;DHT22;9458;50.942;5.074;2022-09-03T13:07:25;26.00;93.20
18658;DHT22;9458;50.942;5.074;2022-09-03T13:10:01;25.90;92.60
18658;DHT22;9458;50.942;5.074;2022-09-03T13:12:32;25.90;93.00
18658;DHT22;9458;50.942;5.074;2022-09-03T13:15:08;25.80;93.30
18658;DHT22;9458;50.942;5.074;2022-09-03T13:18:01;25.80;92.30
18658;DHT22;9458;50.942;5.074;2022-09-03T13:20:36;25.80;91.90
18658;DHT22;9458;50.942;5.074;2022-09-03T13:23:19;25.80;92.10
18658;DHT22;9458;50.942;5.074;2022-09-03T13:25:57;25.70;92.10
18658;DHT22;9458;50.942;5.074;2022-09-03T13:28:40;25.60;92.30
18658;DHT22;9458;50.942;5.074;2022-09-03T13:31:23;25.60;92.30
18658;DHT22;9458;50.942;5.074;2022-09-03T13:33:55;25.50;92.10
18658;DHT22;9458;50.942;5.074;2022-09-03T13:36:29;25.50;92.50
18658;DHT22;9458;50.942;5.074;2022-09-03T13:38:59;25.50;92.80
18658;DHT22;9458;50.942;5.074;2022-09-03T13:41:37;25.50;92.90
18658;DHT22;9458;50.942;5.074;2022-09-03T13:44:09;25.40;93.00
18658;DHT22;9458;50.942;5.074;2022-09-03T13:46:44;25.40;92.90
18658;DHT22;9458;50.942;5.074;2022-09-03T13:49:27;25.40;92.50
18658;DHT22;9458;50.942;5.074;2022-09-03T13:52:18;25.40;92.70
18658;DHT22;9458;50.942;5.074;2022-09-03T13:54:52;25.40;92.50
18658;DHT22;9458;50.942;5.074;2022-09-03T13:57:31;25.50;92.00
18658;DHT22;9458;50.942;5.074;2022-09-03T14:00:03;25.50;91.90
18658;DHT22;9458;50.942;5.074;2022-09-03T14:02:41;25.60;92.10
18658;DHT22;9458;50.942;5.074;2022-09-03T14:05:16;25.60;92.20
18658;DHT22;9458;50.942;5.074;2022-09-03T14:07:53;25.60;91.90
18658;DHT22;9458;50.942;5.074;2022-09-03T14:10:36;25.60;91.80
18658;DHT22;9458;50.942;5.074;2022-09-03T14:13:18;25.70;91.90
18658;DHT22;9458;50.942;5.074;2022-09-03T14:15:54;25.70;90.30
18658;DHT22;9458;50.942;5.074;2022-09-03T14:18:34;25.70;90.60
18658;DHT22;9458;50.942;5.074;2022-09-03T14:21:07;25.80;91.00
18658;DHT22;9458;50.942;5.074;2022-09-03T14:23:41;25.80;91.10
18658;DHT22;9458;50.942;5.074;2022-09-03T14:26:16;25.90;90.90
18658;DHT22;9458;50.942;5.074;2022-09-03T14:28:48;25.90;90.10
18658;DHT22;9458;50.942;5.074;2022-09-03T14:31:24;25.90;90.70
18658;DHT22;9458;50.942;5.074;2022-09-03T14:34:01;25.90;91.00
18658;DHT22;9458;50.942;5.074;2022-09-03T14:36:36;25.80;90.90
18658;DHT22;9458;50.942;5.074;2022-09-03T14:39:22;25.80;90.70
18658;DHT22;9458;50.942;5.074;2022-09-03T14:42:17;25.80;90.70
18658;DHT22;9458;50.942;5.074;2022-09-03T14:45:14;25.70;91.30
18658;DHT22;9458;50.942;5.074;2022-09-03T14:50:56;25.60;92.00
18658;DHT22;9458;50.942;5.074;2022-09-03T14:53:47;25.70;92.00
18658;DHT22;9458;50.942;5.074;2022-09-03T14:56:28;25.70;91.80
18658;DHT22;9458;50.942;5.074;2022-09-03T14:59:26;25.80;91.90
18658;DHT22;9458;50.942;5.074;2022-09-03T15:02:18;25.80;91.80
18658;DHT22;9458;50.942;5.074;2022-09-03T15:04:58;25.80;91.40
18658;DHT22;9458;50.942;5.074;2022-09-03T15:07:38;25.80;91.70
18658;DHT22;9458;50.942;5.074;2022-09-03T15:10:20;25.80;92.00
18658;DHT22;9458;50.942;5.074;2022-09-03T15:12:56;25.80;92.10
18658;DHT22;9458;50.942;5.074;2022-09-03T15:15:29;25.70;92.10
18658;DHT22;9458;50.942;5.074;2022-09-03T15:18:13;25.70;92.30
18658;DHT22;9458;50.942;5.074;2022-09-03T15:20:56;25.70;92.40
18658;DHT22;9458;50.942;5.074;2022-09-03T15:23:37;25.60;92.60
18658;DHT22;9458;50.942;5.074;2022-09-03T15:26:33;25.60;92.70
18658;DHT22;9458;50.942;5.074;2022-09-03T15:32:01;25.50;92.60
18658;DHT22;9458;50.942;5.074;2022-09-03T15:34:52;25.50;92.90
18658;DHT22;9458;50.942;5.074;2022-09-03T15:37:26;25.50;93.00
18658;DHT22;9458;50.942;5.074;2022-09-03T15:40:02;25.50;93.10
18658;DHT22;9458;50.942;5.074;2022-09-03T15:42:31;25.60;93.00
18658;DHT22;9458;50.942;5.074;2022-09-03T15:45:05;25.60;92.90
18658;DHT22;9458;50.942;5.074;2022-09-03T15:47:44;25.70;92.70
18658;DHT22;9458;50.942;5.074;2022-09-03T15:50:28;25.70;92.70
18658;DHT22;9458;50.942;5.074;2022-09-03T15:53:04;25.70;92.90
18658;DHT22;9458;50.942;5.074;2022-09-03T15:55:36;25.70;93.00
18658;DHT22;9458;50.942;5.074;2022-09-03T15:58:22;25.70;93.00
18658;DHT22;9458;50.942;5.074;2022-09-03T16:00:56;25.70;93.20
18658;DHT22;9458;50.942;5.074;2022-09-03T16:03:36;25.60;93.50
18658;DHT22;9458;50.942;5.074;2022-09-03T16:06:22;25.60;93.70
18658;DHT22;9458;50.942;5.074;2022-09-03T16:08:53;25.60;93.70
18658;DHT22;9458;50.942;5.074;2022-09-03T16:11:33;25.50;93.90
18658;DHT22;9458;50.942;5.074;2022-09-03T16:14:05;25.50;93.60
18658;DHT22;9458;50.942;5.074;2022-09-03T16:16:54;25.50;93.80
18658;DHT22;9458;50.942;5.074;2022-09-03T16:19:25;25.50;93.90
18658;DHT22;9458;50.942;5.074;2022-09-03T16:21:59;25.40;94.00
18658;DHT22;9458;50.942;5.074;2022-09-03T16:24:32;25.40;93.90
18658;DHT22;9458;50.942;5.074;2022-09-03T16:27:08;25.30;94.10
18658;DHT22;9458;50.942;5.074;2022-09-03T16:29:36;25.30;94.20
18658;DHT22;9458;50.942;5.074;2022-09-03T16:32:21;25.30;94.30
18658;DHT22;9458;50.942;5.074;2022-09-03T16:35:02;25.30;94.20
18658;DHT22;9458;50.942;5.074;2022-09-03T16:37:43;25.30;94.20
18658;DHT22;9458;50.942;5.074;2022-09-03T16:40:17;25.30;94.10
18658;DHT22;9458;50.942;5.074;2022-09-03T16:42:52;25.30;94.10
18658;DHT22;9458;50.942;5.074;2022-09-03T16:45:37;25.30;94.60
18658;DHT22;9458;50.942;5.074;2022-09-03T16:52:17;25.20;94.40
18658;DHT22;9458;50.942;5.074;2022-09-03T16:54:57;25.10;94.40
18658;DHT22;9458;50.942;5.074;2022-09-03T16:57:39;25.10;94.50